createdAt,value
2023-01-09T00:00:05.453Z,3.19
2023-01-09T00:01:36.984Z,3.48
2023-01-09T00:03:14.405Z,2.20
2023-01-09T00:04:45.681Z,3.03
2023-01-09T00:06:17.068Z,2.29
2023-01-09T00:07:48.480Z,2.13
2023-01-09T00:09:20.024Z,2.25
2023-01-09T00:10:51.317Z,2.48
2023-01-09T00:12:22.731Z,2.43
2023-01-09T00:13:54.034Z,1.98
2023-01-09T00:15:25.335Z,2.87
2023-01-09T00:16:56.768Z,2.43
2023-01-09T00:18:28.044Z,1.94
2023-01-09T00:19:59.483Z,2.08
2023-01-09T00:21:30.763Z,1.91
2023-01-09T00:23:02.144Z,1.55
2023-01-09T00:24:33.412Z,1.64
2023-01-09T00:26:04.784Z,1.72
2023-01-09T00:27:37.571Z,1.39
2023-01-09T00:29:08.935Z,3.24
2023-01-09T00:30:41.728Z,1.95
2023-01-09T00:32:13.120Z,1.57
2023-01-09T00:33:44.554Z,2.14
2023-01-09T00:35:15.838Z,1.38
2023-01-09T00:36:47.137Z,1.78
2023-01-09T00:38:18.495Z,3.25
2023-01-09T00:39:49.826Z,2.19
2023-01-09T00:41:21.085Z,1.80
2023-01-09T00:42:52.841Z,1.59
2023-01-09T00:44:29.129Z,2.46
2023-01-09T00:46:00.581Z,1.34
2023-01-09T00:47:33.484Z,2.30
2023-01-09T00:49:05.067Z,1.86
2023-01-09T00:50:36.508Z,1.50
2023-01-09T00:52:08.020Z,2.16
2023-01-09T00:53:39.594Z,1.32
2023-01-09T00:55:11.093Z,1.57
2023-01-09T00:56:52.500Z,1.19
2023-01-09T00:58:28.894Z,1.21
2023-01-09T01:00:00.225Z,1.46
2023-01-09T01:01:31.708Z,1.60
2023-01-09T01:03:03.410Z,1.99
2023-01-09T01:04:34.888Z,4.38
2023-01-09T01:06:06.163Z,1.70
2023-01-09T01:07:37.496Z,1.38
2023-01-09T01:09:08.836Z,1.04
2023-01-09T01:10:40.139Z,0.89
2023-01-09T01:12:11.415Z,0.85
2023-01-09T01:13:42.778Z,1.36
2023-01-09T01:15:19.281Z,1.76
2023-01-09T01:16:50.594Z,1.32
2023-01-09T01:18:22.004Z,1.53
2023-01-09T01:19:53.514Z,2.42
2023-01-09T01:21:24.766Z,2.01
2023-01-09T01:22:56.167Z,1.22
2023-01-09T01:24:27.433Z,1.97
2023-01-09T01:26:03.755Z,0.99
2023-01-09T01:27:35.183Z,2.07
2023-01-09T01:29:06.649Z,2.06
2023-01-09T01:30:38.210Z,1.22
2023-01-09T01:32:19.681Z,1.16
2023-01-09T01:33:50.911Z,1.30
2023-01-09T01:35:22.178Z,1.51
2023-01-09T01:36:53.845Z,1.12
2023-01-09T01:38:25.136Z,1.07
2023-01-09T01:39:56.419Z,1.08
2023-01-09T01:41:27.800Z,0.90
2023-01-09T01:42:59.137Z,1.18
2023-01-09T01:44:30.576Z,0.80
2023-01-09T01:46:02.101Z,0.58
2023-01-09T01:47:33.428Z,0.68
2023-01-09T01:49:04.696Z,1.64
2023-01-09T01:50:35.989Z,0.92
2023-01-09T01:52:07.357Z,1.29
2023-01-09T01:53:43.986Z,0.72
2023-01-09T01:55:15.678Z,1.17
2023-01-09T01:56:47.220Z,1.23
2023-01-09T01:58:18.760Z,1.45
2023-01-09T01:59:54.998Z,1.39
2023-01-09T02:01:26.541Z,0.90
2023-01-09T02:02:58.090Z,1.76
2023-01-09T02:04:29.571Z,1.57
2023-01-09T02:06:00.913Z,1.14
2023-01-09T02:07:32.192Z,1.18
2023-01-09T02:09:03.473Z,1.62
2023-01-09T02:10:35.439Z,0.81
2023-01-09T02:12:06.769Z,0.77
2023-01-09T02:13:39.224Z,0.94
2023-01-09T02:15:10.603Z,1.24
2023-01-09T02:16:41.878Z,2.02
2023-01-09T02:18:13.245Z,1.86
2023-01-09T02:19:44.581Z,1.47
2023-01-09T02:21:15.928Z,2.46
2023-01-09T02:22:47.206Z,1.81
2023-01-09T02:24:23.520Z,1.36
2023-01-09T02:25:55.009Z,1.86
2023-01-09T02:27:41.397Z,0.98
2023-01-09T02:29:12.891Z,0.92
2023-01-09T02:30:44.205Z,1.51
2023-01-09T02:32:15.592Z,1.33
2023-01-09T02:33:46.861Z,1.13
2023-01-09T02:35:18.271Z,1.40
2023-01-09T02:36:49.517Z,2.04
2023-01-09T02:38:20.806Z,2.71
2023-01-09T02:39:52.975Z,2.09
2023-01-09T02:41:24.345Z,1.49
2023-01-09T02:42:55.750Z,2.15
2023-01-09T02:44:27.117Z,2.52
2023-01-09T02:45:58.420Z,1.80
2023-01-09T02:47:29.643Z,1.76
2023-01-09T02:49:06.072Z,1.48
2023-01-09T02:50:37.411Z,2.11
2023-01-09T02:52:09.073Z,2.08
2023-01-09T02:53:40.570Z,2.36
2023-01-09T02:55:12.008Z,1.30
2023-01-09T02:56:44.689Z,1.86
2023-01-09T02:58:21.172Z,1.85
2023-01-09T02:59:54.022Z,2.39
2023-01-09T03:01:43.218Z,2.56
2023-01-09T03:03:14.625Z,1.19
2023-01-09T03:04:46.302Z,2.51
2023-01-09T03:06:17.671Z,2.27
2023-01-09T03:08:12.045Z,2.97
2023-01-09T03:09:53.783Z,2.59
2023-01-09T03:11:25.073Z,2.75
2023-01-09T03:12:58.905Z,3.06
2023-01-09T03:14:48.323Z,3.03
2023-01-09T03:16:20.257Z,2.22
2023-01-09T03:17:51.626Z,2.83
2023-01-09T03:19:22.997Z,1.88
2023-01-09T03:20:54.378Z,3.44
2023-01-09T03:22:31.040Z,3.38
2023-01-09T03:24:02.492Z,2.08
2023-01-09T03:25:33.900Z,2.70
2023-01-09T03:27:05.355Z,3.47
2023-01-09T03:28:36.743Z,3.48
2023-01-09T03:30:08.059Z,2.65
2023-01-09T03:31:39.508Z,2.66
2023-01-09T03:33:10.835Z,3.33
2023-01-09T03:34:42.069Z,3.81
2023-01-09T03:36:13.333Z,3.28
2023-01-09T03:37:44.943Z,2.52
2023-01-09T03:39:17.607Z,3.18
2023-01-09T03:40:49.030Z,4.38
2023-01-09T03:42:20.331Z,3.27
2023-01-09T03:43:51.615Z,3.21
2023-01-09T03:45:23.183Z,2.93
2023-01-09T03:46:54.457Z,3.11
2023-01-09T03:48:26.023Z,4.74
2023-01-09T03:49:57.265Z,3.17
2023-01-09T03:51:28.652Z,4.54
2023-01-09T03:53:00.233Z,3.75
2023-01-09T03:54:31.566Z,4.26
2023-01-09T03:56:02.976Z,2.82
2023-01-09T03:57:34.598Z,3.46
2023-01-09T03:59:05.942Z,4.07
2023-01-09T04:00:37.573Z,3.68
2023-01-09T04:02:09.272Z,3.47
2023-01-09T04:03:41.012Z,3.47
2023-01-09T04:05:12.653Z,4.65
2023-01-09T04:06:44.269Z,4.76
2023-01-09T04:08:15.717Z,4.11
2023-01-09T04:09:47.451Z,4.44
2023-01-09T04:11:18.898Z,3.12
2023-01-09T04:12:55.788Z,3.31
2023-01-09T04:14:27.455Z,5.00
2023-01-09T04:15:59.235Z,3.82
2023-01-09T04:17:30.601Z,4.80
2023-01-09T04:19:02.166Z,5.01
2023-01-09T04:20:33.706Z,4.95
2023-01-09T04:22:05.450Z,4.88
2023-01-09T04:23:37.420Z,4.37
2023-01-09T04:25:08.753Z,5.04
2023-01-09T04:26:40.145Z,3.56
2023-01-09T04:28:11.905Z,3.26
2023-01-09T04:29:43.428Z,4.01
2023-01-09T04:31:16.175Z,5.87
2023-01-09T04:32:47.604Z,4.14
2023-01-09T04:34:18.960Z,6.35
2023-01-09T04:35:50.527Z,5.32
2023-01-09T04:37:21.891Z,5.40
2023-01-09T04:38:58.463Z,5.66
2023-01-09T04:40:29.955Z,6.38
2023-01-09T04:42:01.344Z,5.07
2023-01-09T04:43:32.816Z,6.43
2023-01-09T04:45:04.561Z,6.20
2023-01-09T04:46:35.923Z,5.58
2023-01-09T04:48:07.211Z,5.18
2023-01-09T04:49:44.549Z,5.87
2023-01-09T04:51:15.996Z,5.41
2023-01-09T04:52:47.239Z,6.79
2023-01-09T04:54:18.827Z,5.87
2023-01-09T04:55:50.410Z,7.25
2023-01-09T04:57:21.723Z,7.50
2023-01-09T04:58:53.420Z,7.08
2023-01-09T05:00:24.709Z,7.61
2023-01-09T05:01:56.317Z,7.31
2023-01-09T05:03:27.978Z,8.70
2023-01-09T05:04:59.366Z,7.51
2023-01-09T05:06:30.751Z,8.75
2023-01-09T05:08:02.101Z,7.35
2023-01-09T05:09:33.536Z,7.10
2023-01-09T05:11:05.157Z,7.46
2023-01-09T05:12:36.610Z,8.03
2023-01-09T05:14:08.003Z,9.74
2023-01-09T05:15:39.472Z,8.62
2023-01-09T05:17:11.216Z,7.22
2023-01-09T05:18:42.920Z,7.83
2023-01-09T05:20:14.244Z,8.19
2023-01-09T05:21:45.552Z,7.14
2023-01-09T05:23:16.804Z,7.78
2023-01-09T05:24:53.319Z,6.63
2023-01-09T05:26:24.796Z,4.64
2023-01-09T05:27:56.278Z,6.06
2023-01-09T05:29:27.668Z,8.60
2023-01-09T05:30:59.651Z,11.99
2023-01-09T05:32:31.096Z,6.69
2023-01-09T05:34:03.291Z,7.12
2023-01-09T05:35:35.164Z,7.48
2023-01-09T05:37:17.990Z,7.51
2023-01-09T05:38:49.751Z,7.49
2023-01-09T05:40:23.153Z,10.07
2023-01-09T05:41:58.180Z,8.81
2023-01-09T05:43:29.608Z,6.90
2023-01-09T05:45:01.066Z,5.59
2023-01-09T05:46:32.467Z,6.81
2023-01-09T05:48:03.650Z,7.98
2023-01-09T05:49:35.344Z,9.15
2023-01-09T05:51:06.774Z,7.37
2023-01-09T05:52:38.163Z,6.82
2023-01-09T05:54:14.506Z,5.86
2023-01-09T05:55:46.174Z,7.63
2023-01-09T05:57:17.423Z,6.45
2023-01-09T05:58:49.038Z,6.86
2023-01-09T06:00:20.641Z,7.05
2023-01-09T06:01:52.065Z,7.66
2023-01-09T06:03:23.390Z,5.76
2023-01-09T06:04:55.255Z,6.28
2023-01-09T06:06:26.761Z,4.84
2023-01-09T06:07:58.274Z,7.82
2023-01-09T06:09:29.755Z,8.72
2023-01-09T06:11:01.513Z,6.27
2023-01-09T06:12:32.766Z,7.89
2023-01-09T06:14:18.039Z,7.91
2023-01-09T06:15:49.875Z,5.76
2023-01-09T06:17:21.266Z,6.96
2023-01-09T06:18:52.757Z,7.87
2023-01-09T06:20:24.012Z,5.95
2023-01-09T06:21:55.731Z,6.64
2023-01-09T06:23:27.110Z,5.25
2023-01-09T06:24:58.486Z,7.28
2023-01-09T06:26:29.861Z,8.04
2023-01-09T06:28:01.108Z,8.99
2023-01-09T06:29:32.444Z,7.65
2023-01-09T06:31:06.137Z,5.22
2023-01-09T06:32:37.560Z,8.17
2023-01-09T06:34:08.874Z,8.38
2023-01-09T06:35:40.268Z,9.43
2023-01-09T06:37:11.585Z,7.15
2023-01-09T06:38:42.982Z,8.24
2023-01-09T06:40:14.453Z,6.53
2023-01-09T06:41:48.388Z,6.19
2023-01-09T06:43:20.457Z,9.25
2023-01-09T06:44:51.923Z,7.06
2023-01-09T06:46:24.706Z,7.48
2023-01-09T06:47:56.098Z,8.59
2023-01-09T06:49:27.328Z,7.80
2023-01-09T06:50:58.736Z,6.21
2023-01-09T06:52:30.113Z,7.12
2023-01-09T06:54:01.548Z,6.60
2023-01-09T06:55:32.896Z,6.13
2023-01-09T06:57:04.157Z,7.65
2023-01-09T06:58:40.567Z,6.33
2023-01-09T07:00:11.998Z,6.10
2023-01-09T07:01:43.606Z,8.24
2023-01-09T07:03:15.263Z,7.33
2023-01-09T07:04:46.628Z,7.48
2023-01-09T07:06:18.431Z,6.15
2023-01-09T07:07:50.009Z,6.02
2023-01-09T07:09:21.517Z,7.93
2023-01-09T07:10:52.913Z,6.57
2023-01-09T07:12:24.541Z,6.40
2023-01-09T07:13:55.763Z,4.48
2023-01-09T07:15:27.093Z,6.49
2023-01-09T07:16:58.988Z,7.95
2023-01-09T07:18:30.435Z,7.73
2023-01-09T07:20:02.051Z,7.40
2023-01-09T07:21:33.545Z,6.74
2023-01-09T07:23:05.234Z,6.12
2023-01-09T07:24:36.488Z,6.23
2023-01-09T07:26:13.180Z,6.54
2023-01-09T07:27:49.753Z,4.93
2023-01-09T07:29:21.325Z,5.55
2023-01-09T07:30:52.817Z,6.96
2023-01-09T07:32:24.453Z,6.81
2023-01-09T07:33:55.831Z,6.97
2023-01-09T07:35:27.489Z,7.47
2023-01-09T07:36:58.936Z,5.93
2023-01-09T07:38:30.199Z,5.55
2023-01-09T07:40:01.576Z,5.89
2023-01-09T07:41:33.025Z,6.24
2023-01-09T07:43:04.273Z,5.57
2023-01-09T07:44:35.578Z,6.62
2023-01-09T07:46:06.919Z,6.00
2023-01-09T07:47:38.508Z,3.86
2023-01-09T07:49:09.979Z,3.92
2023-01-09T07:50:41.547Z,5.04
2023-01-09T07:52:13.195Z,5.03
2023-01-09T07:53:44.788Z,5.72
2023-01-09T07:55:17.448Z,4.74
2023-01-09T07:56:48.898Z,4.87
2023-01-09T07:58:20.323Z,6.08
2023-01-09T07:59:51.669Z,5.85
2023-01-09T08:01:23.281Z,6.58
2023-01-09T08:02:54.972Z,5.13
2023-01-09T08:04:27.045Z,4.50
2023-01-09T08:05:58.717Z,6.50
2023-01-09T08:07:29.938Z,4.73
2023-01-09T08:09:01.208Z,4.90
2023-01-09T08:10:32.563Z,5.60
2023-01-09T08:12:03.930Z,7.29
2023-01-09T08:13:35.202Z,5.90
2023-01-09T08:15:06.452Z,6.40
2023-01-09T08:16:37.690Z,4.22
2023-01-09T08:18:09.030Z,4.43
2023-01-09T08:19:40.412Z,5.99
2023-01-09T08:21:11.830Z,6.15
2023-01-09T08:22:43.212Z,6.60
2023-01-09T08:24:14.552Z,7.69
2023-01-09T08:25:45.901Z,5.50
2023-01-09T08:28:01.076Z,5.11
2023-01-09T08:29:32.766Z,4.04
2023-01-09T08:31:04.179Z,5.57
2023-01-09T08:32:35.825Z,5.86
2023-01-09T08:34:07.132Z,5.75
2023-01-09T08:35:38.548Z,7.97
2023-01-09T08:37:09.836Z,7.43
2023-01-09T08:38:41.164Z,7.18
2023-01-09T08:40:12.713Z,5.93
2023-01-09T08:41:44.427Z,7.32
2023-01-09T08:43:15.972Z,5.32
2023-01-09T08:44:47.618Z,6.39
2023-01-09T08:46:19.058Z,5.47
2023-01-09T08:47:50.514Z,5.20
2023-01-09T08:49:21.812Z,6.88
2023-01-09T08:50:53.128Z,6.07
2023-01-09T08:52:24.533Z,4.57
2023-01-09T08:53:55.831Z,7.00
2023-01-09T08:55:27.159Z,5.86
2023-01-09T08:57:00.001Z,3.61
2023-01-09T08:58:31.207Z,4.68
2023-01-09T09:00:02.581Z,4.98
2023-01-09T09:01:34.388Z,6.37
2023-01-09T09:03:05.720Z,4.92
2023-01-09T09:04:38.426Z,5.27
2023-01-09T09:06:09.787Z,5.67
2023-01-09T09:07:41.175Z,5.51
2023-01-09T09:09:12.826Z,8.09
2023-01-09T09:10:44.308Z,6.42
2023-01-09T09:12:15.627Z,5.65
2023-01-09T09:13:47.048Z,5.60
2023-01-09T09:15:23.269Z,7.15
2023-01-09T09:16:59.569Z,7.32
2023-01-09T09:18:32.366Z,5.38
2023-01-09T09:20:03.793Z,5.39
2023-01-09T09:21:35.078Z,5.56
2023-01-09T09:23:06.319Z,5.61
2023-01-09T09:24:37.580Z,5.77
2023-01-09T09:26:08.887Z,4.55
2023-01-09T09:27:40.334Z,5.04
2023-01-09T09:29:11.947Z,8.28
2023-01-09T09:30:43.474Z,4.71
2023-01-09T09:32:14.711Z,6.44
2023-01-09T09:33:46.094Z,5.61
2023-01-09T09:35:17.336Z,5.13
2023-01-09T09:36:48.917Z,5.81
2023-01-09T09:38:20.399Z,5.50
2023-01-09T09:39:52.229Z,4.70
2023-01-09T09:41:23.816Z,6.65
2023-01-09T09:42:55.196Z,5.66
2023-01-09T09:44:26.474Z,4.65
2023-01-09T09:45:57.968Z,7.03
2023-01-09T09:47:56.754Z,5.46
2023-01-09T09:49:53.907Z,6.65
2023-01-09T09:51:25.221Z,4.89
2023-01-09T09:52:56.456Z,7.13
2023-01-09T09:54:27.965Z,4.18
2023-01-09T09:55:59.362Z,5.87
2023-01-09T09:57:30.736Z,8.83
2023-01-09T09:59:02.190Z,6.19
2023-01-09T10:00:33.492Z,7.54
2023-01-09T10:02:19.424Z,5.83
2023-01-09T10:03:50.881Z,5.25
2023-01-09T10:05:23.830Z,7.80
2023-01-09T10:06:55.093Z,5.26
2023-01-09T10:08:26.348Z,6.64
2023-01-09T10:09:57.722Z,6.88
2023-01-09T10:11:29.208Z,6.09
2023-01-09T10:13:00.776Z,5.48
2023-01-09T10:14:32.215Z,5.15
2023-01-09T10:16:03.686Z,6.65
2023-01-09T10:17:35.170Z,7.73
2023-01-09T10:19:06.393Z,8.56
2023-01-09T10:20:37.597Z,5.91
2023-01-09T10:22:08.917Z,5.81
2023-01-09T10:23:40.121Z,8.07
2023-01-09T10:25:11.356Z,5.77
2023-01-09T10:26:42.708Z,6.72
2023-01-09T10:28:14.156Z,5.77
2023-01-09T10:29:45.512Z,8.32
2023-01-09T10:31:16.992Z,7.80
2023-01-09T10:32:48.756Z,7.06
2023-01-09T10:34:20.207Z,8.18
2023-01-09T10:36:06.916Z,8.05
2023-01-09T10:37:39.457Z,7.48
2023-01-09T10:39:11.635Z,8.18
2023-01-09T10:40:43.023Z,5.59
2023-01-09T10:42:14.589Z,6.60
2023-01-09T10:43:45.887Z,8.95
2023-01-09T10:45:17.993Z,8.22
2023-01-09T10:46:49.354Z,6.64
2023-01-09T10:48:20.661Z,8.55
2023-01-09T10:49:52.027Z,7.41
2023-01-09T10:51:23.483Z,6.27
2023-01-09T10:52:54.807Z,7.53
2023-01-09T10:54:26.206Z,6.71
2023-01-09T10:55:57.707Z,6.68
2023-01-09T10:57:28.992Z,6.83
2023-01-09T10:59:00.274Z,6.53
2023-01-09T11:00:31.974Z,7.92
2023-01-09T11:02:03.631Z,5.79
2023-01-09T11:03:35.228Z,5.54
2023-01-09T11:05:06.520Z,5.19
2023-01-09T11:06:37.969Z,6.29
2023-01-09T11:08:09.350Z,6.39
2023-01-09T11:09:40.952Z,5.12
2023-01-09T11:11:12.404Z,7.17
2023-01-09T11:12:43.887Z,6.63
2023-01-09T11:14:15.259Z,6.26
2023-01-09T11:15:46.772Z,5.93
2023-01-09T11:17:18.452Z,7.54
2023-01-09T11:18:50.030Z,6.51
2023-01-09T11:20:21.840Z,6.91
2023-01-09T11:21:53.218Z,8.18
2023-01-09T11:23:24.589Z,5.82
2023-01-09T11:24:55.885Z,7.22
2023-01-09T11:26:27.261Z,6.08
2023-01-09T11:27:58.900Z,6.73
2023-01-09T11:29:30.636Z,5.69
2023-01-09T11:31:02.298Z,7.68
2023-01-09T11:32:34.004Z,4.78
2023-01-09T11:34:15.469Z,5.88
2023-01-09T11:35:47.231Z,6.53
2023-01-09T11:37:24.892Z,3.99
2023-01-09T11:39:01.473Z,5.11
2023-01-09T11:40:33.300Z,7.35
2023-01-09T11:42:04.622Z,6.54
2023-01-09T11:43:35.899Z,6.03
2023-01-09T11:45:07.372Z,6.72
2023-01-09T11:46:43.666Z,6.43
2023-01-09T11:48:15.126Z,7.00
2023-01-09T11:49:46.617Z,7.92
2023-01-09T11:51:18.112Z,7.84
2023-01-09T11:52:49.469Z,6.94
2023-01-09T11:54:20.865Z,6.50
2023-01-09T11:55:57.145Z,7.08
2023-01-09T11:57:28.835Z,6.92
2023-01-09T11:59:00.149Z,5.81
2023-01-09T12:00:31.507Z,6.23
2023-01-09T12:02:02.871Z,6.72
2023-01-09T12:03:34.194Z,6.04
2023-01-09T12:05:05.730Z,8.86
2023-01-09T12:06:42.231Z,5.86
2023-01-09T12:08:13.575Z,4.18
2023-01-09T12:09:45.305Z,4.79
2023-01-09T12:11:16.604Z,5.69
2023-01-09T12:12:47.876Z,4.86
2023-01-09T12:14:19.450Z,6.43
2023-01-09T12:15:50.953Z,5.45
2023-01-09T12:17:22.375Z,5.25
2023-01-09T12:18:53.743Z,4.24
2023-01-09T12:20:25.448Z,4.70
2023-01-09T12:21:56.720Z,4.25
2023-01-09T12:23:27.989Z,6.69
2023-01-09T12:25:04.468Z,4.96
2023-01-09T12:26:46.555Z,5.30
2023-01-09T12:28:18.007Z,6.04
2023-01-09T12:29:49.330Z,3.97
2023-01-09T12:31:20.884Z,5.62
2023-01-09T12:32:52.416Z,5.67
2023-01-09T12:34:23.892Z,5.71
2023-01-09T12:35:57.215Z,7.26
2023-01-09T12:37:29.667Z,3.35
2023-01-09T12:39:01.055Z,2.56
2023-01-09T12:40:32.648Z,3.61
2023-01-09T12:42:04.117Z,4.36
2023-01-09T12:43:35.413Z,6.30
2023-01-09T12:45:06.678Z,5.57
2023-01-09T12:46:37.992Z,5.01
2023-01-09T12:48:09.368Z,7.75
2023-01-09T12:49:40.894Z,5.46
2023-01-09T12:51:12.149Z,7.33
2023-01-09T12:52:44.169Z,13.81
2023-01-09T12:54:15.522Z,7.00
2023-01-09T12:55:46.944Z,5.18
2023-01-09T12:57:18.680Z,5.81
2023-01-09T12:58:51.809Z,6.99
2023-01-09T13:00:23.214Z,6.74
2023-01-09T13:01:54.487Z,9.77
2023-01-09T13:03:25.732Z,7.22
2023-01-09T13:04:57.018Z,7.96
2023-01-09T13:06:28.271Z,6.79
2023-01-09T13:07:59.695Z,7.92
2023-01-09T13:09:31.101Z,9.65
2023-01-09T13:11:14.839Z,8.25
2023-01-09T13:12:50.601Z,8.18
2023-01-09T13:14:21.961Z,8.19
2023-01-09T13:15:53.329Z,6.17
2023-01-09T13:17:24.708Z,7.26
2023-01-09T13:18:55.964Z,7.28
2023-01-09T13:20:27.470Z,4.26
2023-01-09T13:21:58.890Z,2.74
2023-01-09T13:23:30.300Z,4.24
2023-01-09T13:25:01.994Z,5.61
2023-01-09T13:26:33.551Z,5.30
2023-01-09T13:28:05.028Z,5.71
2023-01-09T13:29:36.998Z,7.18
2023-01-09T13:31:08.489Z,6.09
2023-01-09T13:32:40.185Z,5.49
2023-01-09T13:34:17.857Z,5.60
2023-01-09T13:35:53.475Z,6.22
2023-01-09T13:37:24.836Z,4.81
2023-01-09T13:38:56.134Z,5.20
2023-01-09T13:40:27.459Z,4.51
2023-01-09T13:41:58.908Z,6.36
2023-01-09T13:43:30.428Z,5.84
2023-01-09T13:45:02.072Z,4.85
2023-01-09T13:46:33.507Z,8.56
2023-01-09T13:48:04.868Z,7.20
2023-01-09T13:49:51.568Z,7.71
2023-01-09T13:51:22.930Z,6.25
2023-01-09T13:52:54.321Z,5.03
2023-01-09T13:54:25.595Z,5.29
2023-01-09T13:55:56.901Z,6.64
2023-01-09T13:57:28.180Z,4.68
2023-01-09T13:58:59.856Z,4.62
2023-01-09T14:00:31.099Z,4.25
2023-01-09T14:02:02.519Z,6.07
2023-01-09T14:03:34.525Z,5.37
2023-01-09T14:05:11.000Z,5.03
2023-01-09T14:06:42.436Z,5.41
2023-01-09T14:08:14.013Z,6.96
2023-01-09T14:09:45.329Z,5.89
2023-01-09T14:11:16.705Z,4.78
2023-01-09T14:12:48.169Z,6.48
2023-01-09T14:14:24.497Z,10.08
2023-01-09T14:15:56.359Z,5.37
2023-01-09T14:17:27.640Z,6.15
2023-01-09T14:18:58.960Z,5.86
2023-01-09T14:20:30.212Z,7.07
2023-01-09T14:22:01.808Z,7.27
2023-01-09T14:23:51.007Z,5.27
2023-01-09T14:25:23.849Z,7.38
2023-01-09T14:26:56.839Z,7.46
2023-01-09T14:28:29.094Z,8.31
2023-01-09T14:30:00.410Z,6.30
2023-01-09T14:31:31.845Z,4.69
2023-01-09T14:33:03.291Z,8.65
2023-01-09T14:34:34.732Z,4.69
2023-01-09T14:36:07.251Z,5.13
2023-01-09T14:37:40.814Z,6.54
2023-01-09T14:39:12.416Z,5.16
2023-01-09T14:40:43.825Z,3.17
2023-01-09T14:42:15.402Z,5.62
2023-01-09T14:43:46.856Z,6.29
2023-01-09T14:45:18.300Z,4.93
2023-01-09T14:46:49.781Z,6.52
2023-01-09T14:48:21.282Z,4.50
2023-01-09T14:49:53.008Z,5.31
2023-01-09T14:51:24.263Z,5.76
2023-01-09T14:52:55.546Z,6.75
2023-01-09T14:54:27.130Z,5.85
2023-01-09T14:55:58.583Z,6.02
2023-01-09T14:57:29.907Z,8.56
2023-01-09T14:59:16.244Z,4.39
2023-01-09T15:00:47.572Z,3.53
2023-01-09T15:02:20.111Z,7.20
2023-01-09T15:03:52.897Z,7.13
2023-01-09T15:05:24.235Z,6.11
2023-01-09T15:06:55.764Z,6.57
2023-01-09T15:08:27.130Z,6.27
2023-01-09T15:09:58.481Z,8.21
2023-01-09T15:11:29.860Z,7.45
2023-01-09T15:13:01.499Z,5.94
2023-01-09T15:14:32.853Z,6.18
2023-01-09T15:16:04.236Z,7.20
2023-01-09T15:17:35.568Z,7.07
2023-01-09T15:19:06.936Z,8.55
2023-01-09T15:20:38.900Z,6.93
2023-01-09T15:22:10.420Z,8.74
2023-01-09T15:23:41.898Z,7.79
2023-01-09T15:25:13.094Z,4.69
2023-01-09T15:26:44.495Z,5.30
2023-01-09T15:28:15.775Z,4.30
2023-01-09T15:29:47.112Z,5.25
2023-01-09T15:31:18.443Z,5.58
2023-01-09T15:32:50.105Z,6.96
2023-01-09T15:34:21.334Z,7.06
2023-01-09T15:35:52.715Z,8.02
2023-01-09T15:37:24.064Z,6.71
2023-01-09T15:38:55.427Z,8.23
2023-01-09T15:40:26.723Z,6.28
2023-01-09T15:41:57.967Z,9.57
2023-01-09T15:43:29.228Z,8.80
2023-01-09T15:45:00.656Z,9.31
2023-01-09T15:46:31.999Z,8.99
2023-01-09T15:48:03.371Z,8.18
2023-01-09T15:49:34.840Z,8.78
2023-01-09T15:51:06.193Z,8.43
2023-01-09T15:52:37.490Z,8.08
2023-01-09T15:54:08.857Z,7.12
2023-01-09T15:55:40.473Z,8.21
2023-01-09T15:57:11.803Z,5.05
2023-01-09T16:00:57.436Z,6.62
2023-01-09T16:02:49.783Z,5.32
2023-01-09T16:04:21.539Z,4.90
2023-01-09T16:05:53.005Z,7.40
2023-01-09T16:07:24.241Z,6.02
2023-01-09T16:08:55.769Z,8.56
2023-01-09T16:10:27.124Z,7.91
2023-01-09T16:12:03.560Z,6.08
2023-01-09T16:13:34.835Z,9.24
2023-01-09T16:15:06.081Z,9.92
2023-01-09T16:16:37.468Z,6.47
2023-01-09T16:18:08.718Z,10.83
2023-01-09T16:19:40.308Z,10.40
2023-01-09T16:21:11.571Z,8.31
2023-01-09T16:22:43.036Z,6.84
2023-01-09T16:24:32.715Z,6.43
2023-01-09T16:26:04.899Z,7.52
2023-01-09T16:27:36.203Z,8.58
2023-01-09T16:29:07.738Z,8.90
2023-01-09T16:31:10.475Z,6.20
2023-01-09T16:32:43.375Z,8.06
2023-01-09T16:34:22.432Z,7.07
2023-01-09T16:36:03.885Z,7.54
2023-01-09T16:37:35.360Z,4.85
2023-01-09T16:39:06.871Z,4.31
2023-01-09T16:42:56.532Z,5.97
2023-01-09T16:44:58.229Z,6.56
2023-01-09T16:46:35.930Z,4.41
2023-01-09T16:48:07.421Z,7.17
2023-01-09T16:49:38.809Z,5.74
2023-01-09T16:51:23.161Z,5.84
2023-01-09T16:52:55.450Z,8.78
2023-01-09T16:54:42.085Z,6.44
2023-01-09T16:56:44.242Z,3.42
2023-01-09T16:58:18.859Z,5.10
2023-01-09T16:59:50.383Z,6.19
2023-01-09T17:01:22.009Z,4.36
2023-01-09T17:02:53.769Z,5.56
2023-01-09T17:04:25.124Z,6.05
2023-01-09T17:05:56.832Z,8.38
2023-01-09T17:07:28.950Z,5.89
2023-01-09T17:09:00.765Z,6.51
2023-01-09T17:11:08.723Z,7.05
2023-01-09T17:12:40.026Z,7.88
2023-01-09T17:14:30.719Z,6.23
2023-01-09T17:16:07.963Z,5.89
2023-01-09T17:17:39.475Z,5.08
2023-01-09T17:19:11.313Z,6.98
2023-01-09T17:21:08.352Z,7.25
2023-01-09T17:22:49.748Z,7.52
2023-01-09T17:24:37.715Z,8.42
2023-01-09T17:26:09.266Z,8.95
2023-01-09T17:27:50.815Z,7.60
2023-01-09T17:29:22.647Z,7.63
2023-01-09T17:31:06.304Z,9.37
2023-01-09T17:32:48.357Z,9.79
2023-01-09T17:34:25.527Z,11.18
2023-01-09T17:36:11.940Z,13.22
2023-01-09T17:37:43.429Z,13.80
2023-01-09T17:39:15.011Z,12.25
2023-01-09T17:40:46.536Z,11.92
2023-01-09T17:42:23.937Z,11.32
2023-01-09T17:43:55.948Z,14.22
2023-01-09T17:45:28.078Z,14.08
2023-01-09T17:47:10.423Z,14.03
2023-01-09T17:48:48.004Z,12.40
2023-01-09T17:50:36.009Z,12.92
2023-01-09T17:52:18.624Z,11.40
2023-01-09T17:54:08.290Z,9.18
2023-01-09T17:55:42.607Z,13.18
2023-01-09T17:57:19.368Z,15.15
2023-01-09T17:58:51.179Z,13.29
2023-01-09T18:01:05.912Z,14.60
2023-01-09T18:02:38.403Z,11.27
2023-01-09T18:04:10.531Z,13.06
2023-01-09T18:05:57.351Z,11.49
2023-01-09T18:07:49.278Z,11.68
2023-01-09T18:09:31.329Z,11.35
2023-01-09T18:11:20.399Z,10.82
2023-01-09T18:13:12.253Z,8.40
2023-01-09T18:15:04.154Z,11.07
2023-01-09T18:16:56.160Z,11.27
2023-01-09T18:18:28.064Z,14.44
2023-01-09T18:20:18.477Z,13.78
2023-01-09T18:21:52.110Z,11.05
2023-01-09T18:23:35.850Z,11.98
2023-01-09T18:25:54.057Z,8.45
2023-01-09T18:27:32.016Z,8.99
2023-01-09T18:29:03.426Z,8.44
2023-01-09T18:30:50.070Z,10.06
2023-01-09T18:32:21.440Z,8.79
2023-01-09T18:33:52.720Z,7.85
2023-01-09T18:35:35.269Z,8.04
2023-01-09T18:37:06.717Z,6.79
2023-01-09T18:38:38.052Z,7.50
2023-01-09T18:40:09.266Z,8.25
2023-01-09T18:41:40.519Z,8.76
2023-01-09T18:43:12.107Z,6.97
2023-01-09T18:44:43.436Z,6.96
2023-01-09T18:46:15.145Z,6.45
2023-01-09T18:47:46.815Z,6.02
2023-01-09T18:49:18.120Z,7.09
2023-01-09T18:50:49.600Z,6.84
2023-01-09T18:52:20.924Z,7.92
2023-01-09T18:53:52.418Z,6.83
2023-01-09T18:55:23.907Z,5.21
2023-01-09T18:57:00.339Z,6.50
2023-01-09T18:58:31.905Z,6.41
2023-01-09T19:00:03.249Z,5.03
2023-01-09T19:01:34.755Z,7.09
2023-01-09T19:03:06.203Z,7.98
2023-01-09T19:04:37.461Z,7.35
2023-01-09T19:06:08.880Z,5.63
2023-01-09T19:07:45.157Z,5.27
2023-01-09T19:09:16.487Z,5.72
2023-01-09T19:10:47.846Z,6.44
2023-01-09T19:12:19.095Z,7.06
2023-01-09T19:13:50.341Z,6.79
2023-01-09T19:15:21.866Z,6.31
2023-01-09T19:16:53.612Z,6.05
2023-01-09T19:18:25.390Z,6.29
2023-01-09T19:19:56.872Z,6.28
2023-01-09T19:21:28.490Z,6.77
2023-01-09T19:23:01.588Z,7.99
2023-01-09T19:24:33.258Z,7.55
2023-01-09T19:26:04.886Z,9.86
2023-01-09T19:27:36.505Z,9.68
2023-01-09T19:29:07.783Z,11.58
2023-01-09T19:30:40.068Z,10.26
2023-01-09T19:32:11.481Z,11.32
2023-01-09T19:33:42.832Z,10.79
2023-01-09T19:35:14.136Z,10.33
2023-01-09T19:36:45.554Z,13.81
2023-01-09T19:38:16.827Z,12.07
2023-01-09T19:39:48.158Z,14.66
2023-01-09T19:41:25.098Z,11.53
2023-01-09T19:43:43.261Z,12.17
2023-01-09T19:45:16.253Z,13.35
2023-01-09T19:46:47.519Z,11.30
2023-01-09T19:48:18.847Z,12.17
2023-01-09T19:49:50.126Z,13.79
2023-01-09T19:51:21.571Z,13.09
2023-01-09T19:52:53.092Z,10.80
2023-01-09T19:54:24.566Z,11.92
2023-01-09T19:55:56.010Z,10.85
2023-01-09T19:57:27.705Z,12.33
2023-01-09T19:58:58.923Z,12.10
2023-01-09T20:00:30.374Z,14.14
2023-01-09T20:02:02.276Z,12.92
2023-01-09T20:03:33.596Z,15.29
2023-01-09T20:05:05.401Z,14.35
2023-01-09T20:06:36.882Z,16.45
2023-01-09T20:08:08.279Z,15.52
2023-01-09T20:09:39.519Z,14.90
2023-01-09T20:11:11.141Z,12.96
2023-01-09T20:12:45.350Z,16.68
2023-01-09T20:14:16.996Z,14.25
2023-01-09T20:15:48.289Z,16.67
2023-01-09T20:17:19.949Z,17.44
2023-01-09T20:19:06.414Z,14.77
2023-01-09T20:20:51.860Z,17.33
2023-01-09T20:22:33.332Z,20.92
2023-01-09T20:24:04.639Z,16.94
2023-01-09T20:25:36.045Z,16.76
2023-01-09T20:27:07.263Z,20.70
2023-01-09T20:28:38.505Z,14.99
2023-01-09T20:30:09.942Z,13.69
2023-01-09T20:31:42.653Z,13.63
2023-01-09T20:33:14.064Z,14.48
2023-01-09T20:34:55.330Z,15.67
2023-01-09T20:36:26.784Z,17.24
2023-01-09T20:37:58.228Z,18.14
2023-01-09T20:39:29.527Z,14.18